Time;durP1;ratioP1;P1;durP2;ratioP2;P2;SDS_P1;SDS_P2;PMS_P1;PMS_P2;Temp;Humidity;BMP_temperature;BMP_pressure;BME280_temperature;BME280_humidity;BME280_pressure;Samples;Min_cycle;Max_cycle;Signal;HPM_P1;HPM_P2
2021/05/27 00:02:47;;;;;;;16.93;4.35;;;;;;;13.68;50.28;98594.88;2188540;81;21544;-61
2021/05/27 00:05:48;;;;;;;17.45;4.25;;;;;;;13.67;50.15;98598.95;2188409;81;21543;-60
2021/05/27 00:08:48;;;;;;;19.95;4.70;;;;;;;13.62;50.24;98596.67;2188544;81;21507;-61
2021/05/27 00:11:49;;;;;;;18.70;4.50;;;;;;;13.60;50.52;98605.16;2188269;81;21061;-62
2021/05/27 00:14:49;;;;;;;20.43;4.78;;;;;;;13.58;50.71;98603.63;2188185;81;21001;-62
2021/05/27 00:17:50;;;;;;;21.15;5.05;;;;;;;13.55;50.89;98602.52;2188171;81;21001;-60
2021/05/27 00:20:50;;;;;;;23.35;4.78;;;;;;;13.53;51.19;98601.32;2188324;81;21020;-61
2021/05/27 00:23:51;;;;;;;24.12;5.20;;;;;;;13.50;51.31;98605.51;2188374;81;21124;-63
2021/05/27 00:26:51;;;;;;;21.95;5.55;;;;;;;13.48;51.49;98602.17;2188280;81;20941;-64
2021/05/27 00:29:51;;;;;;;25.02;5.50;;;;;;;13.45;51.85;98611.14;2188533;81;20981;-62
2021/05/27 00:32:52;;;;;;;26.15;5.40;;;;;;;13.42;51.95;98608.74;2188439;81;21009;-62
2021/05/27 00:35:52;;;;;;;23.40;6.22;;;;;;;13.38;52.18;98609.93;2188577;81;21480;-64
2021/05/27 00:38:53;;;;;;;22.13;5.60;;;;;;;13.35;52.46;98608.84;2188105;81;21041;-65
2021/05/27 00:41:54;;;;;;;19.50;5.17;;;;;;;13.31;52.45;98608.20;2188133;81;21021;-62
2021/05/27 00:44:54;;;;;;;19.80;5.30;;;;;;;13.29;52.74;98610.12;2188433;81;21013;-66
2021/05/27 00:47:55;;;;;;;18.23;4.40;;;;;;;13.27;52.84;98615.13;2188268;81;21004;-60
2021/05/27 00:50:55;;;;;;;17.73;4.47;;;;;;;13.24;53.35;98620.15;2188300;81;21048;-61
2021/05/27 00:53:55;;;;;;;18.67;4.50;;;;;;;13.21;53.35;98616.92;2188272;81;21013;-62
2021/05/27 00:56:56;;;;;;;23.60;5.00;;;;;;;13.18;53.60;98624.08;2183532;81;21064;-65
2021/05/27 00:59:57;;;;;;;18.27;4.53;;;;;;;13.15;53.89;98630.90;2182609;81;21018;-62
2021/05/27 01:02:57;;;;;;;19.45;4.55;;;;;;;13.12;53.82;98629.81;2182554;81;21037;-61
2021/05/27 01:05:58;;;;;;;18.65;4.53;;;;;;;13.10;54.08;98630.42;2182449;81;20977;-63
2021/05/27 01:08:58;;;;;;;21.90;4.75;;;;;;;13.08;54.66;98631.48;2182544;81;21002;-61
2021/05/27 01:11:59;;;;;;;17.07;4.72;;;;;;;13.06;54.85;98630.73;2182732;81;21008;-62
2021/05/27 01:18:02;;;;;;;19.92;4.67;;;;;;;13.05;55.24;98639.61;2155228;82;21594;-62
2021/05/27 01:21:03;;;;;;;22.30;5.25;;;;;;;13.02;55.43;98641.99;2182702;82;21044;-63
2021/05/27 01:24:03;;;;;;;18.27;4.70;;;;;;;12.95;55.68;98648.17;2182988;81;20989;-64
2021/05/27 01:27:04;;;;;;;22.60;5.60;;;;;;;12.90;56.17;98649.01;2183047;81;21065;-64
2021/05/27 01:30:04;;;;;;;20.43;5.50;;;;;;;12.87;56.37;98645.75;2182845;81;21543;-64
2021/05/27 01:33:05;;;;;;;20.08;4.95;;;;;;;12.81;56.21;98650.52;2182901;81;21017;-61
2021/05/27 01:36:05;;;;;;;22.13;6.15;;;;;;;12.75;56.65;98647.00;2182680;81;20991;-62
2021/05/27 01:39:05;;;;;;;21.12;5.20;;;;;;;12.70;56.90;98645.20;2182650;81;20977;-62
2021/05/27 01:42:06;;;;;;;18.92;5.42;;;;;;;12.65;57.33;98655.20;2182818;81;21160;-62
2021/05/27 01:45:06;;;;;;;19.27;4.90;;;;;;;12.59;57.72;98653.03;2182709;81;21089;-60
2021/05/27 01:48:07;;;;;;;22.52;5.72;;;;;;;12.53;57.51;98656.94;2182871;81;21024;-62
2021/05/27 01:51:07;;;;;;;16.90;4.83;;;;;;;12.50;57.77;98658.93;2182912;81;20981;-61
2021/05/27 01:54:08;;;;;;;15.65;4.35;;;;;;;12.47;57.88;98661.33;2183021;81;21503;-61
2021/05/27 01:57:09;;;;;;;17.62;4.67;;;;;;;12.43;58.22;98657.23;2187110;80;21013;-61
2021/05/27 02:00:09;;;;;;;14.15;3.62;;;;;;;12.38;59.21;98651.45;2188389;81;21025;-64
2021/05/27 02:03:10;;;;;;;15.32;3.70;;;;;;;12.34;59.67;98648.21;2188525;81;21024;-61
2021/05/27 02:06:10;;;;;;;14.98;3.90;;;;;;;12.33;59.31;98651.78;2188432;81;21060;-62
2021/05/27 02:09:11;;;;;;;14.55;3.62;;;;;;;12.34;59.63;98651.30;2188519;81;20996;-63
2021/05/27 02:12:11;;;;;;;12.55;3.10;;;;;;;12.33;59.62;98647.84;2188430;81;21140;-62
2021/05/27 02:15:12;;;;;;;14.90;3.40;;;;;;;12.36;59.66;98650.73;2188554;81;20994;-65
2021/05/27 02:18:12;;;;;;;14.43;3.80;;;;;;;12.38;60.02;98651.45;2188493;81;21016;-63
2021/05/27 02:21:12;;;;;;;14.85;3.20;;;;;;;12.40;60.06;98658.77;2188633;81;21530;-61
2021/05/27 02:24:13;;;;;;;11.55;3.40;;;;;;;12.39;60.10;98667.61;2188379;81;21543;-63
2021/05/27 02:27:13;;;;;;;15.95;3.90;;;;;;;12.36;60.36;98666.52;2188300;81;20973;-64
2021/05/27 02:30:14;;;;;;;14.70;3.65;;;;;;;12.34;60.45;98675.83;2188405;81;21008;-61
2021/05/27 02:33:14;;;;;;;14.05;3.65;;;;;;;12.29;60.79;98670.03;2188531;81;21001;-62
2021/05/27 02:36:15;;;;;;;17.37;4.03;;;;;;;12.24;60.91;98670.37;2188493;81;21060;-61
2021/05/27 02:39:15;;;;;;;14.45;3.67;;;;;;;12.21;61.04;98667.09;2188451;81;21040;-61
2021/05/27 02:42:16;;;;;;;15.63;3.75;;;;;;;12.13;61.15;98677.68;2188650;81;21013;-64
2021/05/27 02:45:16;;;;;;;15.10;3.65;;;;;;;12.09;61.48;98674.89;2188529;81;21579;-63
2021/05/27 02:48:17;;;;;;;12.75;3.00;;;;;;;12.04;61.51;98674.39;2188383;81;21056;-62
2021/05/27 02:51:17;;;;;;;11.83;3.40;;;;;;;12.03;61.44;98676.64;2188402;81;21005;-61
2021/05/27 02:54:17;;;;;;;13.30;3.17;;;;;;;12.03;61.42;98670.55;2188533;81;20985;-63
2021/05/27 02:57:18;;;;;;;14.25;3.10;;;;;;;12.03;61.86;98673.19;2188284;81;20997;-65
2021/05/27 03:00:18;;;;;;;15.58;3.70;;;;;;;12.04;61.29;98678.33;2188404;81;20997;-63
2021/05/27 03:03:21;;;;;;;13.10;3.33;;;;;;;12.02;61.55;98676.27;2188474;81;21080;-65
2021/05/27 03:06:22;;;;;;;13.28;3.22;;;;;;;12.00;61.80;98671.60;2188354;81;21512;-61
2021/05/27 03:09:22;;;;;;;23.30;9.18;;;;;;;12.01;61.95;98675.92;2188222;81;21093;-60
2021/05/27 03:12:23;;;;;;;29.12;18.12;;;;;;;12.03;61.68;98672.70;2188508;81;20993;-60
2021/05/27 03:15:23;;;;;;;24.95;9.38;;;;;;;12.05;61.68;98669.96;2188500;81;20968;-60
2021/05/27 03:18:23;;;;;;;27.52;10.28;;;;;;;12.07;61.97;98667.60;2188452;81;21045;-64
2021/05/27 03:21:24;;;;;;;21.93;9.20;;;;;;;12.10;61.86;98654.72;2188569;81;21037;-63
2021/05/27 03:24:25;;;;;;;24.90;12.73;;;;;;;12.13;61.98;98660.59;2188193;81;21547;-64
2021/05/27 03:27:25;;;;;;;32.17;11.63;;;;;;;12.19;61.89;98668.52;2188251;81;21028;-62
2021/05/27 03:30:26;;;;;;;22.62;8.33;;;;;;;12.25;61.90;98669.88;2188345;81;21143;-60
2021/05/27 03:33:26;;;;;;;26.68;9.33;;;;;;;12.26;61.98;98668.94;2188487;81;21005;-61
2021/05/27 03:36:27;;;;;;;32.88;8.60;;;;;;;12.27;62.02;98670.63;2188415;81;21045;-62
2021/05/27 03:39:27;;;;;;;13.53;3.30;;;;;;;12.30;62.47;98673.88;2188466;81;21092;-63
2021/05/27 03:42:28;;;;;;;14.50;3.60;;;;;;;12.30;62.41;98676.98;2188339;81;21594;-62
2021/05/27 03:45:28;;;;;;;12.80;3.20;;;;;;;12.30;62.46;98676.50;2188214;81;21017;-64
2021/05/27 03:48:29;;;;;;;16.32;3.42;;;;;;;12.32;62.58;98673.77;2188441;81;21005;-63
2021/05/27 03:51:29;;;;;;;15.70;3.33;;;;;;;12.33;62.96;98678.56;2188445;81;21033;-64
2021/05/27 03:54:30;;;;;;;14.35;3.30;;;;;;;12.37;62.56;98676.06;2188596;81;21524;-61
2021/05/27 03:57:30;;;;;;;14.65;3.25;;;;;;;12.41;62.30;98675.76;2184110;81;21588;-65
2021/05/27 04:09:38;;;;;;;16.02;3.40;;;;;;;12.79;62.15;98694.52;2155554;82;20469;-64
2021/05/27 04:15:41;;;;;;;13.32;3.12;;;;;;;12.90;61.98;98706.92;2155533;82;21540;-63
2021/05/27 04:18:41;;;;;;;13.03;3.30;;;;;;;12.96;61.64;98703.00;2182489;81;20988;-64
2021/05/27 04:21:42;;;;;;;11.35;3.17;;;;;;;13.00;61.46;98707.06;2182753;81;21016;-65
2021/05/27 04:24:42;;;;;;;17.15;3.77;;;;;;;13.06;61.55;98711.05;2182665;81;20981;-64
2021/05/27 04:27:43;;;;;;;11.75;3.00;;;;;;;13.11;61.72;98711.56;2182731;82;21012;-64
2021/05/27 04:33:47;;;;;;;17.95;3.87;;;;;;;13.34;61.26;98713.36;2155534;82;21566;-64
2021/05/27 04:36:47;;;;;;;11.17;3.07;;;;;;;13.45;61.31;98716.52;2183027;81;21068;-63
2021/05/27 04:39:48;;;;;;;16.37;3.25;;;;;;;13.44;60.92;98711.38;2182694;81;20973;-64
2021/05/27 04:42:48;;;;;;;10.90;3.00;;;;;;;13.41;60.48;98711.61;2182717;81;21056;-64
2021/05/27 04:45:48;;;;;;;14.98;3.05;;;;;;;13.68;60.53;98711.33;2182651;81;20970;-59
2021/05/27 04:48:49;;;;;;;10.32;2.80;;;;;;;14.03;59.88;98709.09;2182707;81;21009;-64
2021/05/27 04:51:49;;;;;;;9.43;2.90;;;;;;;14.27;58.48;98716.91;2182716;81;21017;-63
2021/05/27 04:54:50;;;;;;;8.48;2.12;;;;;;;14.35;58.26;98715.84;2182629;82;21032;-63
2021/05/27 04:57:51;;;;;;;8.98;2.50;;;;;;;14.11;58.40;98711.16;2187277;81;21128;-64
2021/05/27 05:00:52;;;;;;;11.20;2.50;;;;;;;13.89;58.13;98715.91;2189013;81;21634;-65
2021/05/27 05:03:52;;;;;;;7.65;2.30;;;;;;;13.76;59.28;98719.47;2189290;81;21024;-63
2021/05/27 05:06:52;;;;;;;7.75;2.20;;;;;;;13.77;58.76;98720.33;2189281;81;21107;-65
2021/05/27 05:09:53;;;;;;;9.20;2.50;;;;;;;13.76;59.13;98723.42;2189210;81;21005;-62
2021/05/27 05:12:53;;;;;;;7.85;2.47;;;;;;;13.71;58.76;98724.76;2189350;81;20965;-64
2021/05/27 05:15:54;;;;;;;7.83;1.72;;;;;;;13.71;58.96;98730.86;2189400;81;20961;-64
2021/05/27 05:18:54;;;;;;;8.78;2.12;;;;;;;13.84;57.74;98734.72;2189247;81;21485;-64
2021/05/27 05:21:57;;;;;;;7.08;1.90;;;;;;;13.98;57.56;98727.92;2189111;81;21538;-64
2021/05/27 05:24:57;;;;;;;8.78;1.90;;;;;;;14.08;57.38;98723.23;2162014;81;21119;-63
2021/05/27 05:27:58;;;;;;;5.25;1.77;;;;;;;14.30;57.70;98730.34;2189221;81;21523;-63
2021/05/27 05:30:58;;;;;;;7.20;1.85;;;;;;;14.55;56.43;98738.48;2189167;81;21008;-64
2021/05/27 05:33:58;;;;;;;6.70;1.77;;;;;;;14.82;55.69;98736.80;2189016;81;20973;-61
2021/05/27 05:36:59;;;;;;;7.67;1.50;;;;;;;15.14;54.97;98736.03;2189099;81;21081;-62
2021/05/27 05:39:59;;;;;;;10.72;1.85;;;;;;;15.31;53.85;98720.09;2189183;81;21012;-61
2021/05/27 05:43:00;;;;;;;6.87;1.75;;;;;;;15.50;53.96;98731.33;2189115;81;21020;-61
2021/05/27 05:46:00;;;;;;;8.65;1.90;;;;;;;15.58;53.17;98730.19;2189209;81;21069;-64
2021/05/27 05:49:01;;;;;;;5.85;1.67;;;;;;;15.90;54.53;98725.84;2189352;81;20969;-62
2021/05/27 05:52:02;;;;;;;5.00;1.45;;;;;;;16.19;52.04;98733.09;2189189;81;21087;-64
2021/05/27 05:55:03;;;;;;;9.30;1.95;;;;;;;16.16;51.89;98738.66;2188999;81;21095;-61
2021/05/27 05:58:03;;;;;;;5.20;1.57;;;;;;;16.22;52.10;98752.67;2184611;81;21053;-64
2021/05/27 06:01:04;;;;;;;5.55;1.80;;;;;;;16.27;52.06;98757.93;2182889;81;21519;-64
2021/05/27 06:04:05;;;;;;;5.03;1.85;;;;;;;16.18;52.48;98746.83;2182769;81;21003;-64
2021/05/27 06:07:05;;;;;;;8.30;1.82;;;;;;;16.08;51.69;98763.13;2182898;81;20958;-64
2021/05/27 06:10:06;;;;;;;4.35;1.47;;;;;;;15.86;51.88;98775.98;2182809;81;20973;-64
2021/05/27 06:13:06;;;;;;;7.40;1.70;;;;;;;15.55;51.20;98781.16;2182914;81;21013;-63
2021/05/27 06:16:06;;;;;;;6.65;2.10;;;;;;;15.30;52.02;98784.96;2182910;81;21045;-64
2021/05/27 06:19:07;;;;;;;8.83;1.80;;;;;;;15.27;53.17;98783.44;2182857;81;21582;-64
2021/05/27 06:22:08;;;;;;;6.03;1.47;;;;;;;15.32;52.93;98787.84;2182725;81;20997;-64
2021/05/27 06:25:09;;;;;;;4.80;1.42;;;;;;;15.40;54.36;98793.81;2183079;81;20973;-64
2021/05/27 06:28:09;;;;;;;7.78;1.75;;;;;;;15.38;52.35;98787.83;2182682;81;21005;-64
2021/05/27 06:31:11;;;;;;;5.10;1.70;;;;;;;15.10;53.04;98788.75;2182821;81;21523;-64
2021/05/27 06:34:12;;;;;;;8.30;1.80;;;;;;;14.92;53.76;98798.14;2183067;81;20994;-64
2021/05/27 06:37:13;;;;;;;4.30;1.45;;;;;;;15.12;53.65;98780.20;2182901;81;21270;-64
2021/05/27 06:40:13;;;;;;;5.40;1.57;;;;;;;15.15;52.76;98778.63;2182634;81;21004;-61
2021/05/27 06:43:14;;;;;;;7.85;2.10;;;;;;;15.19;53.72;98776.11;2182743;81;21092;-62
2021/05/27 06:46:15;;;;;;;6.40;1.57;;;;;;;15.50;53.36;98784.66;2182560;81;21069;-61
2021/05/27 06:49:15;;;;;;;6.72;1.87;;;;;;;15.64;52.36;98788.32;2182739;81;21552;-61
2021/05/27 06:52:17;;;;;;;5.30;1.67;;;;;;;15.73;52.58;98784.93;2182682;81;21088;-62
2021/05/27 06:55:17;;;;;;;5.72;1.57;;;;;;;15.96;51.77;98784.86;2182908;81;21005;-61
2021/05/27 06:58:18;;;;;;;4.65;1.57;;;;;;;15.70;53.22;98787.84;2182841;81;21056;-61
2021/05/27 07:01:18;;;;;;;5.45;1.80;;;;;;;15.28;53.50;98794.83;2182826;81;21128;-61
2021/05/27 07:04:19;;;;;;;6.55;1.70;;;;;;;14.91;53.48;98782.75;2182600;81;21092;-61
2021/05/27 07:07:19;;;;;;;5.97;1.90;;;;;;;14.89;54.93;98796.58;2182863;81;21001;-61
2021/05/27 07:10:20;;;;;;;7.80;1.90;;;;;;;15.45;53.52;98805.36;2182818;81;21523;-61
2021/05/27 07:13:21;;;;;;;6.97;1.60;;;;;;;15.83;52.73;98792.98;2182685;82;21139;-64
2021/05/27 07:16:21;;;;;;;5.53;1.92;;;;;;;16.14;51.69;98786.91;2182771;81;20997;-61
2021/05/27 07:19:22;;;;;;;8.50;1.60;;;;;;;16.73;51.54;98782.73;2182677;81;20985;-60
2021/05/27 07:22:23;;;;;;;11.25;1.87;;;;;;;16.72;49.95;98792.97;2182772;81;21483;-62
2021/05/27 07:25:23;;;;;;;3.37;1.17;;;;;;;16.85;53.29;98795.38;2182898;81;21064;-63
2021/05/27 07:28:24;;;;;;;5.85;1.92;;;;;;;16.58;49.69;98798.98;2182600;81;21004;-61
2021/05/27 07:31:25;;;;;;;7.33;1.90;;;;;;;16.53;52.17;98796.37;2182549;81;20969;-61
2021/05/27 07:34:25;;;;;;;5.58;1.87;;;;;;;16.76;50.11;98814.24;2182768;81;21535;-61
2021/05/27 07:37:26;;;;;;;5.40;1.60;;;;;;;16.86;50.65;98792.59;2182615;81;20993;-61
2021/05/27 07:40:27;;;;;;;5.97;1.47;;;;;;;16.98;49.86;98790.70;2182504;81;21076;-61
2021/05/27 07:43:27;;;;;;;5.20;1.62;;;;;;;16.96;51.90;98799.29;2182593;81;21033;-62
2021/05/27 07:46:28;;;;;;;6.92;1.67;;;;;;;16.80;50.51;98802.41;2182744;81;21547;-61
2021/05/27 07:49:29;;;;;;;5.50;1.70;;;;;;;16.81;50.37;98788.20;2182659;81;20996;-61
2021/05/27 07:52:29;;;;;;;6.12;1.87;;;;;;;17.19;48.58;98795.09;2182703;81;20969;-61
2021/05/27 07:55:30;;;;;;;8.28;1.87;;;;;;;16.96;51.67;98800.61;2182714;81;21340;-61
2021/05/27 07:58:31;;;;;;;4.53;1.75;;;;;;;16.30;50.04;98812.41;2186208;81;21575;-60
2021/05/27 08:01:31;;;;;;;6.42;1.77;;;;;;;15.67;51.54;98814.50;2188203;81;21045;-65
2021/05/27 08:04:32;;;;;;;5.20;1.55;;;;;;;15.36;54.33;98821.48;2188447;81;21002;-61
2021/05/27 08:07:32;;;;;;;6.55;2.15;;;;;;;15.18;53.62;98816.69;2188367;81;21124;-64
2021/05/27 08:10:33;;;;;;;5.60;1.75;;;;;;;15.40;53.48;98824.20;2188178;81;21069;-62
2021/05/27 08:13:35;;;;;;;;;;;;;;;16.27;52.23;98817.47;2169738;81;21583;-62
2021/05/27 08:16:35;;;;;;;7.42;2.20;;;;;;;16.97;51.65;98822.17;2188445;81;20238;-65
2021/05/27 08:19:36;;;;;;;9.40;2.25;;;;;;;17.46;54.68;98810.34;2188149;81;21012;-61
2021/05/27 08:22:37;;;;;;;7.28;1.98;;;;;;;17.75;46.97;98805.05;2188550;81;21595;-62
2021/05/27 08:25:37;;;;;;;3.75;1.60;;;;;;;18.17;48.62;98811.41;2188442;81;21472;-64
2021/05/27 08:28:38;;;;;;;6.85;2.02;;;;;;;17.90;47.95;98820.53;2188093;81;21013;-64
2021/05/27 08:31:40;;;;;;;2.37;1.40;;;;;;;17.62;46.69;98816.42;2188260;81;21016;-64
2021/05/27 08:34:40;;;;;;;6.60;1.75;;;;;;;17.75;52.21;98810.84;2188517;81;21084;-65
2021/05/27 08:37:41;;;;;;;5.28;2.00;;;;;;;17.77;46.81;98811.53;2188531;81;21460;-64
2021/05/27 08:40:42;;;;;;;4.62;1.98;;;;;;;17.98;48.09;98804.79;2188136;81;21585;-64
2021/05/27 08:43:42;;;;;;;5.28;1.50;;;;;;;18.39;47.94;98798.78;2188219;81;20989;-65
2021/05/27 08:46:43;;;;;;;6.67;1.70;;;;;;;18.50;46.60;98807.05;2188428;81;21001;-64
2021/05/27 08:49:46;;;;;;;5.78;1.65;;;;;;;18.65;45.09;98811.42;2188371;81;20997;-65
2021/05/27 08:52:45;;;;;;;6.72;1.67;;;;;;;18.85;44.81;98805.03;2167497;81;21580;-62
2021/05/27 08:55:48;;;;;;;4.17;1.50;;;;;;;18.86;44.58;98820.03;2188102;81;21772;-63
2021/05/27 08:58:48;;;;;;;8.53;1.67;;;;;;;18.72;42.86;98830.25;2188470;81;21119;-64
2021/05/27 09:01:49;;;;;;;7.03;1.90;;;;;;;18.05;44.45;98809.05;2188075;81;21040;-64
2021/05/27 09:04:49;;;;;;;8.90;1.85;;;;;;;17.40;45.35;98824.16;2188174;81;20985;-62
2021/05/27 09:07:50;;;;;;;8.55;1.92;;;;;;;17.37;49.31;98829.71;2188276;81;21012;-61
2021/05/27 09:10:51;;;;;;;5.22;1.60;;;;;;;17.88;49.22;98825.98;2188399;81;21045;-63
2021/05/27 09:13:52;;;;;;;;;;;;;;;17.97;47.10;98824.33;2191023;81;21017;-62
2021/05/27 09:16:53;;;;;;;6.05;2.00;;;;;;;18.03;46.92;98832.22;2188323;81;20481;-64
2021/05/27 09:19:53;;;;;;;3.62;1.57;;;;;;;17.84;43.65;98840.50;2188134;81;20985;-63
2021/05/27 09:22:54;;;;;;;4.67;1.60;;;;;;;17.89;46.29;98819.70;2188273;81;21111;-63
2021/05/27 09:25:56;;;;;;;4.78;1.40;;;;;;;18.09;44.89;98832.50;2188434;81;21012;-64
2021/05/27 09:28:56;;;;;;;8.25;1.67;;;;;;;18.31;44.38;98830.52;2167348;81;21591;-63
2021/05/27 09:31:57;;;;;;;4.42;1.57;;;;;;;18.53;45.68;98830.19;2188409;81;21053;-64
2021/05/27 09:34:58;;;;;;;4.12;1.60;;;;;;;18.87;42.45;98834.14;2188511;81;21019;-64
2021/05/27 09:37:58;;;;;;;7.78;1.65;;;;;;;19.08;44.10;98827.73;2188748;81;21079;-65
2021/05/27 09:40:59;;;;;;;8.35;1.87;;;;;;;19.47;41.38;98823.54;2188764;81;21559;-64
2021/05/27 09:44:00;;;;;;;5.60;1.80;;;;;;;19.35;44.30;98823.75;2188826;81;21448;-64
2021/05/27 09:47:00;;;;;;;5.80;1.82;;;;;;;19.76;42.97;98818.49;2188706;81;21532;-65
2021/05/27 09:50:00;;;;;;;7.05;1.67;;;;;;;20.13;46.24;98830.78;2188700;81;21093;-64
2021/05/27 09:53:01;;;;;;;5.27;1.63;;;;;;;19.71;42.69;98829.56;2188541;81;20980;-64
2021/05/27 09:56:02;;;;;;;5.83;1.67;;;;;;;19.71;43.18;98825.10;2188838;81;21025;-63
2021/05/27 09:59:02;;;;;;;5.15;1.52;;;;;;;19.69;42.61;98843.03;2189128;81;21598;-65
2021/05/27 10:02:03;;;;;;;3.22;1.40;;;;;;;18.72;41.53;98848.38;2189456;81;21034;-64
2021/05/27 10:05:03;;;;;;;5.20;1.35;;;;;;;17.93;43.59;98843.69;2189611;81;21468;-65
2021/05/27 10:08:04;;;;;;;4.45;1.40;;;;;;;18.39;45.99;98849.23;2188969;81;21574;-64
2021/05/27 10:11:04;;;;;;;4.47;1.70;;;;;;;18.90;43.77;98847.13;2189103;81;21096;-61
2021/05/27 10:14:05;;;;;;;5.45;1.80;;;;;;;19.21;43.71;98842.37;2189212;81;21016;-63
2021/05/27 10:17:05;;;;;;;3.50;1.60;;;;;;;19.69;41.27;98838.21;2189015;81;21100;-63
2021/05/27 10:20:06;;;;;;;4.33;1.80;;;;;;;20.34;41.65;98831.77;2189064;81;21000;-64
2021/05/27 10:23:06;;;;;;;5.75;1.60;;;;;;;20.77;41.48;98835.39;2189317;81;21052;-65
2021/05/27 10:26:07;;;;;;;3.98;1.25;;;;;;;20.64;41.41;98826.46;2189373;81;21057;-65
2021/05/27 10:29:07;;;;;;;5.42;1.50;;;;;;;20.63;39.00;98830.14;2189295;81;21025;-63
2021/05/27 10:32:09;;;;;;;4.83;1.53;;;;;;;20.33;40.09;98828.29;2189454;81;21044;-66
2021/05/27 10:35:10;;;;;;;4.40;1.67;;;;;;;19.89;42.09;98842.91;2189056;81;21535;-64
2021/05/27 10:38:10;;;;;;;12.40;1.75;;;;;;;19.74;41.49;98838.61;2189298;81;20997;-64
2021/05/27 10:41:11;;;;;;;7.55;1.75;;;;;;;19.61;39.96;98842.11;2189241;81;21024;-65
2021/05/27 10:44:14;;;;;;;6.05;1.30;;;;;;;19.37;41.16;98854.19;2189419;81;21041;-62
2021/05/27 10:47:14;;;;;;;2.35;1.27;;;;;;;19.22;41.54;98852.50;2161646;81;21546;-62
2021/05/27 10:50:14;;;;;;;4.93;1.50;;;;;;;19.63;40.95;98847.63;2189188;81;21523;-63
2021/05/27 10:53:15;;;;;;;3.92;1.42;;;;;;;20.05;41.47;98851.03;2189457;81;20985;-64
2021/05/27 10:56:15;;;;;;;5.05;1.30;;;;;;;20.15;37.38;98856.77;2189162;81;21064;-65
2021/05/27 10:59:16;;;;;;;3.22;1.25;;;;;;;19.99;38.32;98846.33;2185421;81;21430;-64
2021/05/27 11:02:16;;;;;;;6.22;1.45;;;;;;;20.03;39.51;98840.22;2182972;81;21053;-62
2021/05/27 11:05:17;;;;;;;6.75;1.32;;;;;;;20.07;37.80;98850.91;2182842;82;21065;-62
2021/05/27 11:08:18;;;;;;;4.90;1.37;;;;;;;19.68;39.79;98844.03;2182681;81;21009;-63
2021/05/27 11:11:18;;;;;;;5.87;1.57;;;;;;;19.19;40.24;98854.98;2182725;81;20950;-64
2021/05/27 11:14:19;;;;;;;6.65;1.60;;;;;;;18.88;41.04;98859.73;2182841;82;21140;-61
2021/05/27 11:17:21;;;;;;;6.62;1.80;;;;;;;18.98;41.57;98866.34;2182687;81;21538;-62
2021/05/27 11:20:27;;;;;;;2.05;1.22;;;;;;;19.35;40.09;98867.63;2182683;82;21068;-64
2021/05/27 11:23:25;;;;;;;5.08;1.52;;;;;;;19.80;41.78;98852.66;2155454;82;21567;-62
2021/05/27 11:26:26;;;;;;;6.50;1.82;;;;;;;20.23;39.71;98864.84;2182841;81;21005;-63
2021/05/27 11:29:26;;;;;;;4.72;1.40;;;;;;;19.98;37.96;98859.79;2183036;81;20997;-64
2021/05/27 11:32:26;;;;;;;4.60;1.40;;;;;;;20.15;38.81;98848.79;2182941;81;21012;-64
2021/05/27 11:35:27;;;;;;;7.33;1.65;;;;;;;20.42;38.99;98840.66;2183179;81;21017;-62
2021/05/27 11:38:27;;;;;;;4.10;1.25;;;;;;;20.36;38.83;98853.27;2183038;81;20985;-62
2021/05/27 11:41:28;;;;;;;2.58;0.95;;;;;;;20.06;38.98;98847.89;2183043;81;21543;-62
2021/05/27 11:44:28;;;;;;;5.03;1.55;;;;;;;19.87;37.12;98847.06;2183257;81;20997;-62
2021/05/27 11:47:30;;;;;;;5.12;1.42;;;;;;;19.81;39.72;98846.83;2182643;82;21068;-64
2021/05/27 11:50:30;;;;;;;4.65;1.40;;;;;;;19.63;39.00;98851.63;2182963;81;21040;-64
2021/05/27 11:53:31;;;;;;;3.98;1.10;;;;;;;19.25;39.10;98848.23;2182644;81;20950;-64
2021/05/27 11:56:35;;;;;;;7.37;1.50;;;;;;;19.13;39.09;98850.23;2182883;82;21013;-62
2021/05/27 11:59:35;;;;;;;3.40;1.27;;;;;;;19.24;39.19;98851.88;2165744;81;21016;-62
2021/05/27 12:02:35;;;;;;;3.02;1.15;;;;;;;19.80;39.77;98841.19;2201545;81;21075;-62
2021/05/27 12:05:36;;;;;;;3.60;1.22;;;;;;;20.11;38.44;98844.76;2201555;81;21055;-64
2021/05/27 12:08:37;;;;;;;4.30;1.20;;;;;;;20.06;37.66;98838.06;2201497;81;21154;-65
2021/05/27 12:11:37;;;;;;;9.48;1.72;;;;;;;20.40;38.80;98829.34;2201396;81;20976;-64
2021/05/27 12:14:38;;;;;;;2.83;1.37;;;;;;;20.34;39.81;98833.97;2201295;81;20989;-65
2021/05/27 12:17:38;;;;;;;4.10;1.37;;;;;;;20.45;36.72;98826.20;2201201;81;21032;-64
2021/05/27 12:20:40;;;;;;;10.20;2.10;;;;;;;20.56;38.96;98829.11;2201659;81;21019;-64
2021/05/27 12:23:41;;;;;;;3.80;1.32;;;;;;;20.84;35.66;98819.09;2201636;81;21479;-65
2021/05/27 12:26:41;;;;;;;5.97;1.55;;;;;;;21.20;37.13;98831.41;2201650;81;21127;-62
2021/05/27 12:29:42;;;;;;;2.55;1.05;;;;;;;21.18;37.18;98828.09;2201655;81;21025;-65
2021/05/27 12:32:43;;;;;;;6.07;1.60;;;;;;;20.95;35.77;98836.66;2201889;81;21004;-65
2021/05/27 12:35:43;;;;;;;3.50;1.40;;;;;;;20.77;35.37;98834.06;2201494;81;21056;-63
2021/05/27 12:38:44;;;;;;;3.10;1.10;;;;;;;20.30;37.08;98825.09;2201732;81;21558;-65
2021/05/27 12:41:44;;;;;;;6.10;1.55;;;;;;;20.14;38.13;98832.47;2201667;81;21119;-62
2021/05/27 12:44:45;;;;;;;4.37;1.72;;;;;;;20.17;38.81;98834.81;2201831;80;21558;-62
2021/05/27 12:47:46;;;;;;;4.80;1.90;;;;;;;20.55;38.17;98830.91;2201504;81;21506;-63
2021/05/27 12:50:47;;;;;;;6.58;1.35;;;;;;;21.23;37.70;98827.94;2201681;81;21091;-63
2021/05/27 12:53:47;;;;;;;4.37;1.42;;;;;;;21.40;37.72;98830.64;2201673;81;21024;-62
2021/05/27 12:56:47;;;;;;;5.03;1.20;;;;;;;21.49;36.38;98828.82;2201633;81;20989;-64
2021/05/27 12:59:48;;;;;;;9.33;1.90;;;;;;;20.84;33.58;98826.27;2190320;81;21116;-64
2021/05/27 13:02:48;;;;;;;3.50;1.10;;;;;;;20.65;36.73;98828.14;2182980;81;21060;-64
2021/05/27 13:05:49;;;;;;;4.42;1.20;;;;;;;20.99;37.34;98827.34;2183003;81;21468;-64
2021/05/27 13:08:49;;;;;;;6.58;1.52;;;;;;;21.09;35.79;98830.72;2182717;81;20973;-65
2021/05/27 13:11:50;;;;;;;6.75;1.37;;;;;;;20.76;36.69;98832.41;2182687;81;21024;-65
2021/05/27 13:14:50;;;;;;;2.77;1.30;;;;;;;20.58;35.45;98826.59;2182838;82;21024;-65
2021/05/27 13:17:51;;;;;;;3.67;1.13;;;;;;;20.59;36.75;98824.79;2182982;81;20973;-65
2021/05/27 13:20:51;;;;;;;4.60;1.50;;;;;;;20.78;34.77;98824.25;2183160;81;21057;-65
2021/05/27 13:23:51;;;;;;;3.30;1.32;;;;;;;21.36;37.47;98822.62;2183163;81;21528;-65
2021/05/27 13:29:55;;;;;;;3.58;0.90;;;;;;;20.84;33.99;98816.44;2155730;82;21009;-65
2021/05/27 13:32:55;;;;;;;5.87;1.42;;;;;;;20.40;36.52;98821.82;2182776;82;21531;-64
2021/05/27 13:36:00;;;;;;;1.98;1.17;;;;;;;20.49;37.05;98826.73;2182938;81;21093;-65
2021/05/27 13:38:58;;;;;;;3.33;1.22;;;;;;;20.51;35.98;98814.90;2155468;82;21004;-66
2021/05/27 13:41:58;;;;;;;2.00;1.00;;;;;;;20.73;37.06;98814.91;2182937;81;21041;-65
2021/05/27 13:44:59;;;;;;;4.57;1.60;;;;;;;20.89;36.77;98811.47;2183000;81;20977;-65
2021/05/27 13:47:59;;;;;;;3.77;1.12;;;;;;;21.02;36.64;98806.17;2182880;81;21084;-65
2021/05/27 13:51:00;;;;;;;4.50;1.70;;;;;;;21.07;36.64;98807.87;2183180;81;20997;-64
2021/05/27 13:54:00;;;;;;;3.30;1.20;;;;;;;21.20;36.79;98806.08;2183174;81;20993;-65
2021/05/27 13:57:01;;;;;;;3.72;1.30;;;;;;;21.35;36.62;98805.79;2183126;81;21001;-64
2021/05/27 14:00:01;;;;;;;2.70;1.37;;;;;;;21.43;36.46;98800.96;2186672;81;21021;-65
2021/05/27 14:03:01;;;;;;;7.72;1.50;;;;;;;21.37;35.92;98801.11;2189557;81;21615;-66
2021/05/27 14:06:02;;;;;;;3.08;1.22;;;;;;;21.16;35.85;98804.73;2189227;81;20969;-65
2021/05/27 14:09:03;;;;;;;5.62;1.30;;;;;;;20.93;36.37;98796.83;2189149;81;21080;-66
2021/05/27 14:12:03;;;;;;;6.60;1.72;;;;;;;20.50;37.49;98800.41;2189198;81;20954;-65
2021/05/27 14:15:03;;;;;;;4.90;1.30;;;;;;;20.04;36.33;98802.79;2188910;81;20992;-65
2021/05/27 14:18:04;;;;;;;6.03;1.50;;;;;;;19.56;37.09;98802.16;2188921;81;21036;-65
2021/05/27 14:21:04;;;;;;;5.83;1.87;;;;;;;19.24;37.21;98797.37;2188896;81;21017;-66
2021/05/27 14:24:05;;;;;;;4.95;1.50;;;;;;;18.89;39.32;98802.11;2188970;81;21068;-62
2021/05/27 14:27:07;;;;;;;4.62;1.70;;;;;;;18.67;38.73;98808.94;2189001;81;21001;-61
2021/05/27 14:30:08;;;;;;;5.10;1.60;;;;;;;18.34;39.60;98804.50;2188991;81;21020;-63